Time;durP1;ratioP1;P1;durP2;ratioP2;P2;SDS_P1;SDS_P2;PMS_P1;PMS_P2;Temp;Humidity;BMP_temperature;BMP_pressure;BME280_temperature;BME280_humidity;BME280_pressure;Samples;Min_cycle;Max_cycle;Signal;HPM_P1;HPM_P2
2024/03/10 06:01:03;;;;;;;10.30;5.23;;;;;;;;;;5825944;22;20485;-76
2024/03/10 06:03:29;;;;;;;10.03;5.00;;;;;;;;;;5034754;28;20432;-76
2024/03/10 06:05:55;;;;;;;7.43;4.50;;;;;;;;;;5034366;28;20468;-74
2024/03/10 06:08:21;;;;;;;8.17;4.37;;;;;;;;;;5034684;28;20459;-73
2024/03/10 06:10:47;;;;;;;8.97;5.57;;;;;;;;;;5034714;28;20912;-74
2024/03/10 06:13:13;;;;;;;10.23;5.50;;;;;;;;;;5034617;28;20401;-74
2024/03/10 06:15:39;;;;;;;10.10;5.77;;;;;;;;;;5034609;28;20435;-75
2024/03/10 06:18:15;;;;;;;10.87;6.10;;;;;;;;;;5034705;28;20488;-75
2024/03/10 06:26:34;;;;;;;7.13;4.30;;;;;;;;;;4992487;28;20913;-75
2024/03/10 06:29:02;;;;;;;9.83;5.30;;;;;;;;;;5025466;28;20426;-75
2024/03/10 06:31:28;;;;;;;9.03;4.70;;;;;;;;;;5034362;28;20425;-75
2024/03/10 06:33:54;;;;;;;7.27;5.10;;;;;;;;;;5034239;28;20409;-75
2024/03/10 06:36:20;;;;;;;6.43;4.07;;;;;;;;;;5034083;28;20407;-75
2024/03/10 06:38:46;;;;;;;7.80;4.37;;;;;;;;;;5034172;28;20487;-75
2024/03/10 06:41:12;;;;;;;7.53;4.17;;;;;;;;;;5034048;28;20425;-75
2024/03/10 06:43:38;;;;;;;8.20;4.33;;;;;;;;;;5034035;28;20409;-75
2024/03/10 06:46:04;;;;;;;6.13;4.43;;;;;;;;;;5033807;28;20460;-75
2024/03/10 06:48:30;;;;;;;7.33;4.37;;;;;;;;;;5033957;28;20448;-75
2024/03/10 06:50:56;;;;;;;8.10;4.00;;;;;;;;;;5033916;28;20461;-75
2024/03/10 06:53:24;;;;;;;7.57;4.90;;;;;;;;;;5034026;28;20411;-73
2024/03/10 06:55:51;;;;;;;8.70;4.60;;;;;;;;;;5033647;28;20432;-74
2024/03/10 06:58:18;;;;;;;6.43;4.60;;;;;;;;;;5033700;28;20409;-74
2024/03/10 07:00:45;;;;;;;9.17;4.27;;;;;;;;;;5033533;28;20441;-74
2024/03/10 07:03:11;;;;;;;5.77;4.00;;;;;;;;;;5033689;28;20409;-74
2024/03/10 07:05:39;;;;;;;6.87;3.60;;;;;;;;;;5032139;28;20464;-74
2024/03/10 07:08:07;;;;;;;7.60;4.40;;;;;;;;;;5033607;28;20409;-74
2024/03/10 07:10:35;;;;;;;7.63;4.90;;;;;;;;;;5032321;28;20445;-74
2024/03/10 07:13:01;;;;;;;6.40;4.10;;;;;;;;;;5033509;28;20440;-74
2024/03/10 07:15:27;;;;;;;4.60;3.33;;;;;;;;;;5033061;28;20417;-73
2024/03/10 07:17:53;;;;;;;5.37;3.63;;;;;;;;;;5031980;28;20432;-74
2024/03/10 07:20:19;;;;;;;4.60;3.23;;;;;;;;;;5033577;28;20416;-75
2024/03/10 07:22:45;;;;;;;9.73;3.97;;;;;;;;;;5033379;28;20414;-75
2024/03/10 07:25:14;;;;;;;6.93;4.23;;;;;;;;;;5033024;28;20808;-75
2024/03/10 07:27:40;;;;;;;7.60;3.60;;;;;;;;;;5033678;28;20893;-75
2024/03/10 07:30:07;;;;;;;4.90;3.97;;;;;;;;;;5033789;28;20417;-75
2024/03/10 07:32:33;;;;;;;4.17;3.23;;;;;;;;;;5033945;28;20432;-75
2024/03/10 07:35:00;;;;;;;6.13;3.70;;;;;;;;;;5033013;28;20432;-75
2024/03/10 07:37:26;;;;;;;4.93;3.93;;;;;;;;;;5033031;28;20755;-75
2024/03/10 07:39:52;;;;;;;7.80;3.60;;;;;;;;;;5033072;28;20903;-75
2024/03/10 07:42:18;;;;;;;7.00;3.73;;;;;;;;;;5032679;28;20433;-75
2024/03/10 07:44:44;;;;;;;8.13;4.00;;;;;;;;;;5032620;28;20461;-75
2024/03/10 07:47:10;;;;;;;5.50;4.13;;;;;;;;;;5033053;28;20463;-75
2024/03/10 07:49:37;;;;;;;8.30;4.30;;;;;;;;;;5032934;28;20406;-75
2024/03/10 07:52:04;;;;;;;5.40;3.43;;;;;;;;;;5032820;28;20967;-75
2024/03/10 07:54:30;;;;;;;4.90;3.53;;;;;;;;;;5031277;28;20423;-75
2024/03/10 07:56:56;;;;;;;8.00;3.97;;;;;;;;;;5032746;28;20413;-76
2024/03/10 07:59:22;;;;;;;5.00;3.73;;;;;;;;;;5032650;28;20417;-75
2024/03/10 08:01:52;;;;;;;6.00;3.37;;;;;;;;;;5032027;28;20826;-76
2024/03/10 08:04:18;;;;;;;6.20;3.83;;;;;;;;;;5031541;28;20888;-75
2024/03/10 08:06:44;;;;;;;6.40;3.30;;;;;;;;;;5031658;28;20406;-75
2024/03/10 08:09:15;;;;;;;6.37;3.50;;;;;;;;;;5031683;28;20405;-76
2024/03/10 08:11:41;;;;;;;4.67;3.20;;;;;;;;;;5031786;28;20866;-76
2024/03/10 08:14:07;;;;;;;5.57;3.10;;;;;;;;;;5032115;28;20584;-75
2024/03/10 08:16:33;;;;;;;6.07;3.97;;;;;;;;;;5031217;28;20444;-75
2024/03/10 08:19:00;;;;;;;6.50;3.53;;;;;;;;;;5031751;28;20424;-76
2024/03/10 08:21:26;;;;;;;7.37;4.00;;;;;;;;;;5030709;28;20456;-75
2024/03/10 08:23:52;;;;;;;4.87;3.90;;;;;;;;;;5032062;28;20405;-74
2024/03/10 08:26:18;;;;;;;5.43;3.50;;;;;;;;;;5031611;28;20495;-75
2024/03/10 08:28:44;;;;;;;9.43;3.37;;;;;;;;;;5031907;28;20666;-74
2024/03/10 08:31:12;;;;;;;5.33;3.57;;;;;;;;;;5030596;28;20639;-74
2024/03/10 08:33:39;;;;;;;6.80;3.63;;;;;;;;;;5031907;28;20491;-75
2024/03/10 08:36:05;;;;;;;5.63;4.13;;;;;;;;;;5031631;28;20428;-75
2024/03/10 08:38:32;;;;;;;6.60;4.40;;;;;;;;;;5031505;28;20445;-75
2024/03/10 08:40:58;;;;;;;3.83;3.07;;;;;;;;;;5031204;28;20461;-75
2024/03/10 08:43:24;;;;;;;3.50;2.90;;;;;;;;;;5029888;28;20825;-75
2024/03/10 08:45:51;;;;;;;5.93;3.33;;;;;;;;;;5030856;28;20483;-75
2024/03/10 08:48:17;;;;;;;6.00;3.43;;;;;;;;;;5031235;28;20453;-75
2024/03/10 08:50:44;;;;;;;5.03;3.13;;;;;;;;;;5031041;28;20428;-76
2024/03/10 08:53:10;;;;;;;6.03;3.77;;;;;;;;;;5031013;28;20409;-75
2024/03/10 08:55:36;;;;;;;7.93;3.43;;;;;;;;;;5030700;28;20592;-75
2024/03/10 08:58:05;;;;;;;4.60;3.30;;;;;;;;;;5031185;28;20531;-75
2024/03/10 09:00:31;;;;;;;5.90;3.60;;;;;;;;;;5021376;28;231718;-75
2024/03/10 09:02:57;;;;;;;3.77;2.93;;;;;;;;;;5030806;28;20410;-75
2024/03/10 09:05:23;;;;;;;3.80;2.77;;;;;;;;;;5031830;28;21113;-75
2024/03/10 09:07:50;;;;;;;5.27;3.70;;;;;;;;;;5031985;28;20410;-75
2024/03/10 09:10:16;;;;;;;5.70;3.60;;;;;;;;;;5031660;28;20437;-75
2024/03/10 09:12:42;;;;;;;4.73;3.23;;;;;;;;;;5031716;28;20412;-75
2024/03/10 09:15:09;;;;;;;7.63;3.73;;;;;;;;;;5031351;28;20496;-75
2024/03/10 09:17:36;;;;;;;6.00;2.90;;;;;;;;;;5031678;28;20432;-75
2024/03/10 09:20:03;;;;;;;5.43;3.30;;;;;;;;;;5031772;28;20496;-75
2024/03/10 09:22:29;;;;;;;4.57;3.00;;;;;;;;;;5031582;28;20436;-74
2024/03/10 09:24:55;;;;;;;4.00;3.10;;;;;;;;;;5031127;28;20499;-75
2024/03/10 09:27:21;;;;;;;4.07;3.33;;;;;;;;;;5031369;28;20437;-75
2024/03/10 09:29:47;;;;;;;5.20;3.80;;;;;;;;;;5034766;28;20919;-76
2024/03/10 09:32:15;;;;;;;5.10;3.10;;;;;;;;;;5034540;28;20437;-74
2024/03/10 09:34:42;;;;;;;5.20;2.80;;;;;;;;;;5035658;28;20421;-76
2024/03/10 09:37:08;;;;;;;4.20;2.77;;;;;;;;;;5035198;28;20413;-74
2024/03/10 09:39:34;;;;;;;4.07;3.33;;;;;;;;;;5035254;28;20416;-75
2024/03/10 09:42:00;;;;;;;5.23;3.10;;;;;;;;;;5036112;28;20772;-75
2024/03/10 09:44:27;;;;;;;4.53;3.17;;;;;;;;;;5035498;28;20409;-75
2024/03/10 09:46:55;;;;;;;5.00;3.33;;;;;;;;;;5035319;28;20421;-74
2024/03/10 09:49:21;;;;;;;5.63;3.47;;;;;;;;;;5035577;28;20896;-74
2024/03/10 09:51:51;;;;;;;4.77;3.10;;;;;;;;;;5033759;28;20429;-75
2024/03/10 09:54:17;;;;;;;5.23;3.30;;;;;;;;;;5034806;28;20539;-74
2024/03/10 09:56:45;;;;;;;7.40;3.23;;;;;;;;;;5035166;28;20433;-74
2024/03/10 09:59:17;;;;;;;8.57;3.67;;;;;;;;;;5034952;28;20417;-75
2024/03/10 10:01:46;;;;;;;3.97;3.33;;;;;;;;;;5034882;28;20441;-74
2024/03/10 10:04:13;;;;;;;4.73;3.60;;;;;;;;;;5034712;28;20460;-75
2024/03/10 10:06:40;;;;;;;4.80;3.30;;;;;;;;;;5034961;28;20409;-75
2024/03/10 10:09:13;;;;;;;4.10;3.03;;;;;;;;;;5035035;28;20915;-75
2024/03/10 10:11:39;;;;;;;3.90;3.00;;;;;;;;;;5034838;28;20932;-75
2024/03/10 10:14:15;;;;;;;3.57;2.30;;;;;;;;;;5035129;28;20420;-77
2024/03/10 10:17:01;;;;;;;3.80;2.80;;;;;;;;;;5034908;28;20405;-75
2024/03/10 10:19:32;;;;;;;8.50;3.00;;;;;;;;;;5034956;28;20409;-75
2024/03/10 10:21:58;;;;;;;4.73;3.20;;;;;;;;;;5034516;28;20428;-75
2024/03/10 10:24:24;;;;;;;4.33;2.70;;;;;;;;;;5034199;28;20413;-75
2024/03/10 10:26:57;;;;;;;4.03;2.90;;;;;;;;;;5035053;28;20417;-74
2024/03/10 10:29:23;;;;;;;4.60;2.83;;;;;;;;;;5045102;28;20401;-74
2024/03/10 10:31:56;;;;;;;4.43;3.07;;;;;;;;;;5045848;28;20433;-75
2024/03/10 10:34:22;;;;;;;3.97;2.80;;;;;;;;;;5039675;28;20924;-75
2024/03/10 10:36:49;;;;;;;3.07;2.33;;;;;;;;;;5039447;28;20742;-75
2024/03/10 10:39:24;;;;;;;2.90;2.60;;;;;;;;;;5040936;28;20410;-75
2024/03/10 10:41:51;;;;;;;7.03;2.40;;;;;;;;;;5038910;28;20491;-75
2024/03/10 10:44:18;;;;;;;4.17;2.67;;;;;;;;;;5033831;28;20409;-75
2024/03/10 10:46:44;;;;;;;3.67;2.77;;;;;;;;;;5034009;28;20421;-75
2024/03/10 10:49:11;;;;;;;3.90;2.60;;;;;;;;;;5034325;28;20784;-75
2024/03/10 10:51:37;;;;;;;5.53;3.07;;;;;;;;;;5033764;28;20781;-75
2024/03/10 10:54:12;;;;;;;3.97;3.20;;;;;;;;;;5033879;28;20416;-74
2024/03/10 10:56:38;;;;;;;5.13;3.53;;;;;;;;;;5035123;28;20401;-74
2024/03/10 10:59:05;;;;;;;5.23;3.37;;;;;;;;;;5040669;28;20896;-75
2024/03/10 11:01:31;;;;;;;5.60;3.57;;;;;;;;;;5033701;28;20445;-75
2024/03/10 11:04:00;;;;;;;5.53;3.23;;;;;;;;;;5033652;28;20458;-75
2024/03/10 11:06:27;;;;;;;3.60;2.87;;;;;;;;;;5033391;28;20816;-74
2024/03/10 11:08:55;;;;;;;5.63;2.80;;;;;;;;;;5033421;28;20559;-75
2024/03/10 11:11:40;;;;;;;3.00;2.73;;;;;;;;;;5033497;28;20932;-74
2024/03/10 11:14:06;;;;;;;6.70;3.10;;;;;;;;;;5033778;28;20392;-75
2024/03/10 11:16:34;;;;;;;4.60;2.87;;;;;;;;;;5033294;28;20421;-74
2024/03/10 11:19:13;;;;;;;4.67;3.43;;;;;;;;;;5033453;28;20413;-75
2024/03/10 11:21:39;;;;;;;3.37;2.67;;;;;;;;;;5033361;28;20456;-74
2024/03/10 11:24:08;;;;;;;5.07;2.83;;;;;;;;;;5033395;28;20474;-75
2024/03/10 11:26:34;;;;;;;4.00;2.87;;;;;;;;;;5032819;28;20828;-75
2024/03/10 11:29:03;;;;;;;3.30;2.73;;;;;;;;;;5032937;28;20409;-75
2024/03/10 11:31:32;;;;;;;5.33;2.47;;;;;;;;;;5032765;28;20428;-75
2024/03/10 11:33:58;;;;;;;4.50;3.33;;;;;;;;;;5031787;28;20497;-75
2024/03/10 11:36:25;;;;;;;4.33;3.10;;;;;;;;;;5032472;28;20449;-75
2024/03/10 11:38:51;;;;;;;7.00;3.27;;;;;;;;;;5032911;28;20496;-75
2024/03/10 11:41:18;;;;;;;3.97;2.77;;;;;;;;;;5033060;28;21023;-74
2024/03/10 11:43:46;;;;;;;4.23;2.50;;;;;;;;;;5032889;28;20414;-74
2024/03/10 11:46:18;;;;;;;5.20;3.10;;;;;;;;;;5032319;28;20584;-75
2024/03/10 11:48:46;;;;;;;3.93;3.00;;;;;;;;;;5032720;28;20854;-74
2024/03/10 11:51:13;;;;;;;6.50;2.97;;;;;;;;;;5032132;28;20425;-75
2024/03/10 11:53:40;;;;;;;3.93;2.90;;;;;;;;;;5032671;28;20849;-74
2024/03/10 11:56:06;;;;;;;5.73;2.63;;;;;;;;;;5031144;28;20421;-74
2024/03/10 11:58:33;;;;;;;3.73;2.43;;;;;;;;;;5032507;28;20420;-75
2024/03/10 12:01:05;;;;;;;4.60;3.07;;;;;;;;;;5032415;28;20974;-75
2024/03/10 12:03:32;;;;;;;4.37;2.70;;;;;;;;;;5032794;28;20421;-75
2024/03/10 12:05:58;;;;;;;4.50;2.80;;;;;;;;;;5032370;28;20460;-74
2024/03/10 12:08:26;;;;;;;4.23;2.60;;;;;;;;;;5032452;28;20504;-74
2024/03/10 12:10:58;;;;;;;4.30;2.77;;;;;;;;;;5032412;28;20449;-75
2024/03/10 12:13:24;;;;;;;3.50;2.80;;;;;;;;;;5032200;28;20911;-75
2024/03/10 12:15:54;;;;;;;3.50;2.50;;;;;;;;;;5032648;28;20414;-74
2024/03/10 12:18:21;;;;;;;4.87;2.63;;;;;;;;;;5032562;28;20520;-74
2024/03/10 12:20:47;;;;;;;5.47;2.93;;;;;;;;;;5031264;28;20994;-74
2024/03/10 12:23:13;;;;;;;5.73;2.77;;;;;;;;;;5032645;28;20413;-74
2024/03/10 12:25:44;;;;;;;2.90;2.33;;;;;;;;;;5032014;28;20456;-74
2024/03/10 12:28:11;;;;;;;6.70;3.00;;;;;;;;;;5032340;28;20908;-75
2024/03/10 12:30:37;;;;;;;4.30;2.93;;;;;;;;;;5032313;28;20429;-74
2024/03/10 12:33:04;;;;;;;5.20;3.33;;;;;;;;;;5032402;28;20409;-74
2024/03/10 12:35:30;;;;;;;5.67;3.17;;;;;;;;;;5030634;28;20421;-74
2024/03/10 12:37:56;;;;;;;5.17;3.13;;;;;;;;;;5032276;28;20432;-74
2024/03/10 12:40:22;;;;;;;3.73;3.10;;;;;;;;;;5032345;28;20417;-74
2024/03/10 12:42:50;;;;;;;5.10;2.47;;;;;;;;;;5032027;28;20923;-74
2024/03/10 12:45:16;;;;;;;4.80;2.83;;;;;;;;;;5032398;28;20465;-74
2024/03/10 12:47:46;;;;;;;3.90;2.30;;;;;;;;;;5032716;28;20950;-74
2024/03/10 12:50:13;;;;;;;4.97;3.03;;;;;;;;;;5035515;28;20409;-74
2024/03/10 12:52:39;;;;;;;2.07;1.93;;;;;;;;;;5034882;28;20436;-74
2024/03/10 12:55:07;;;;;;;6.73;3.33;;;;;;;;;;5032563;28;20432;-74
2024/03/10 12:57:34;;;;;;;4.03;2.20;;;;;;;;;;5034396;28;20405;-74
2024/03/10 13:00:00;;;;;;;4.60;2.70;;;;;;;;;;5032572;28;20414;-74
2024/03/10 13:02:27;;;;;;;3.37;2.53;;;;;;;;;;5032483;28;20453;-74
2024/03/10 13:04:54;;;;;;;3.10;2.67;;;;;;;;;;5034289;28;20469;-74
2024/03/10 13:07:20;;;;;;;4.30;3.03;;;;;;;;;;5036065;28;20935;-74
2024/03/10 13:09:46;;;;;;;3.43;2.50;;;;;;;;;;5036238;28;20839;-74
2024/03/10 13:12:11;;;;;;;3.70;2.70;;;;;;;;;;5036018;28;20424;-75
2024/03/10 13:14:37;;;;;;;6.60;2.77;;;;;;;;;;5035784;28;20826;-74
2024/03/10 13:17:03;;;;;;;2.63;2.43;;;;;;;;;;5036003;28;20417;-74
2024/03/10 13:19:29;;;;;;;5.50;3.03;;;;;;;;;;5035759;28;20471;-74
2024/03/10 13:21:55;;;;;;;4.03;2.77;;;;;;;;;;5035718;28;20432;-74
2024/03/10 13:24:23;;;;;;;5.70;3.23;;;;;;;;;;5035234;28;20416;-74
2024/03/10 13:26:49;;;;;;;7.43;3.70;;;;;;;;;;5035855;28;20401;-73
2024/03/10 13:29:16;;;;;;;5.20;2.97;;;;;;;;;;5035811;28;20416;-73
2024/03/10 13:31:42;;;;;;;4.40;3.47;;;;;;;;;;5035795;28;20519;-76
2024/03/10 13:34:08;;;;;;;4.30;3.20;;;;;;;;;;5035547;28;20409;-74
2024/03/10 13:36:34;;;;;;;7.23;2.97;;;;;;;;;;5034891;28;20420;-74
2024/03/10 13:39:00;;;;;;;4.50;3.27;;;;;;;;;;5034086;28;20944;-74
2024/03/10 13:41:26;;;;;;;5.90;3.97;;;;;;;;;;5035468;28;20529;-74
2024/03/10 13:43:52;;;;;;;7.70;4.00;;;;;;;;;;5035405;28;20417;-74
2024/03/10 13:46:18;;;;;;;5.33;3.63;;;;;;;;;;5034791;28;20892;-74
2024/03/10 13:48:45;;;;;;;8.00;4.30;;;;;;;;;;5034954;28;20491;-74
2024/03/10 13:51:11;;;;;;;4.37;3.40;;;;;;;;;;5035028;28;20776;-74
2024/03/10 13:53:37;;;;;;;8.27;4.23;;;;;;;;;;5034955;28;20409;-73
2024/03/10 13:56:04;;;;;;;8.33;4.23;;;;;;;;;;5034815;28;20933;-74
2024/03/10 13:58:30;;;;;;;5.63;3.83;;;;;;;;;;5034763;28;20405;-74
2024/03/10 14:00:56;;;;;;;7.87;3.60;;;;;;;;;;5034569;28;20805;-74
2024/03/10 14:03:21;;;;;;;6.60;3.77;;;;;;;;;;5034736;28;20467;-74
2024/03/10 14:05:47;;;;;;;12.07;4.10;;;;;;;;;;5034760;28;20523;-74
2024/03/10 14:08:13;;;;;;;6.97;3.73;;;;;;;;;;5034907;28;20448;-74
2024/03/10 14:10:39;;;;;;;4.90;3.53;;;;;;;;;;5034628;28;20471;-73
2024/03/10 14:13:07;;;;;;;8.23;4.70;;;;;;;;;;5034470;28;20721;-74
2024/03/10 14:15:37;;;;;;;7.10;4.30;;;;;;;;;;5033672;28;20915;-74
2024/03/10 14:18:03;;;;;;;7.80;4.13;;;;;;;;;;5034069;28;20491;-73
2024/03/10 14:20:31;;;;;;;6.60;4.10;;;;;;;;;;5036371;28;20416;-74
2024/03/10 14:22:57;;;;;;;6.40;3.70;;;;;;;;;;5036705;28;20464;-74
2024/03/10 14:25:23;;;;;;;4.77;3.90;;;;;;;;;;5034934;28;20464;-74
2024/03/10 14:27:50;;;;;;;9.70;4.13;;;;;;;;;;5033436;28;20421;-74
2024/03/10 14:30:18;;;;;;;10.57;4.53;;;;;;;;;;5033264;28;20488;-74
2024/03/10 14:32:44;;;;;;;7.03;4.23;;;;;;;;;;5033210;28;20416;-74
2024/03/10 14:35:13;;;;;;;8.10;4.70;;;;;;;;;;5034238;28;20809;-74
2024/03/10 14:37:44;;;;;;;8.53;4.43;;;;;;;;;;5034289;28;20409;-74
2024/03/10 14:40:21;;;;;;;7.90;4.30;;;;;;;;;;5034408;28;20420;-74
2024/03/10 14:42:58;;;;;;;7.10;4.20;;;;;;;;;;5034407;28;20920;-75
2024/03/10 14:45:24;;;;;;;9.70;5.10;;;;;;;;;;5033752;28;20457;-74
2024/03/10 14:47:50;;;;;;;6.43;3.90;;;;;;;;;;5034110;28;20413;-74
2024/03/10 14:50:20;;;;;;;6.20;4.37;;;;;;;;;;5033945;28;20412;-74
2024/03/10 14:52:48;;;;;;;11.07;5.70;;;;;;;;;;5034246;28;20496;-74
2024/03/10 14:55:15;;;;;;;7.63;5.00;;;;;;;;;;5033703;28;20540;-74
2024/03/10 14:57:44;;;;;;;7.43;4.80;;;;;;;;;;5033807;28;20479;-74
2024/03/10 15:00:12;;;;;;;8.17;5.40;;;;;;;;;;5033844;28;20413;-74
2024/03/10 15:02:38;;;;;;;9.60;5.40;;;;;;;;;;5033683;28;20429;-74
2024/03/10 15:05:04;;;;;;;7.53;5.90;;;;;;;;;;5033670;28;20460;-74
2024/03/10 15:07:30;;;;;;;8.97;6.00;;;;;;;;;;5033841;28;20912;-74
2024/03/10 15:09:57;;;;;;;8.73;5.87;;;;;;;;;;5033957;28;20467;-74
2024/03/10 15:12:23;;;;;;;9.33;6.60;;;;;;;;;;5033722;28;20429;-74
2024/03/10 15:14:50;;;;;;;10.67;6.50;;;;;;;;;;5033812;28;20496;-74
2024/03/10 15:17:17;;;;;;;10.90;6.50;;;;;;;;;;5033665;28;20417;-74
2024/03/10 15:19:43;;;;;;;10.20;6.43;;;;;;;;;;5033948;28;20835;-74
2024/03/10 15:22:09;;;;;;;14.20;7.00;;;;;;;;;;5032189;28;20851;-75
2024/03/10 15:24:35;;;;;;;13.47;7.07;;;;;;;;;;5033089;28;20424;-73
2024/03/10 15:27:06;;;;;;;13.17;6.53;;;;;;;;;;5032406;28;20421;-73
2024/03/10 15:29:34;;;;;;;10.73;7.13;;;;;;;;;;5033241;28;20825;-73
2024/03/10 15:32:00;;;;;;;9.33;6.40;;;;;;;;;;5033364;28;20433;-73
2024/03/10 15:34:26;;;;;;;11.73;6.60;;;;;;;;;;5033245;28;20852;-75
2024/03/10 15:36:53;;;;;;;12.20;6.53;;;;;;;;;;5033084;28;20768;-74
2024/03/10 15:39:24;;;;;;;13.23;7.77;;;;;;;;;;5033060;28;20409;-74
2024/03/10 15:41:50;;;;;;;13.17;7.50;;;;;;;;;;5033207;28;20996;-73
2024/03/10 15:44:17;;;;;;;16.07;7.57;;;;;;;;;;5033324;28;20401;-73
2024/03/10 15:46:46;;;;;;;11.57;7.33;;;;;;;;;;5033263;28;20469;-74
2024/03/10 15:49:14;;;;;;;13.97;8.20;;;;;;;;;;5033142;28;20855;-75
2024/03/10 15:51:40;;;;;;;13.70;8.23;;;;;;;;;;5034645;28;20449;-74
2024/03/10 15:54:06;;;;;;;14.87;8.50;;;;;;;;;;5033329;28;20401;-74
2024/03/10 15:56:32;;;;;;;16.00;8.60;;;;;;;;;;5033246;28;20962;-73
2024/03/10 15:58:58;;;;;;;12.57;7.20;;;;;;;;;;5033480;28;20406;-74
2024/03/10 16:01:24;;;;;;;16.93;7.90;;;;;;;;;;5033024;28;20835;-74
2024/03/10 16:03:57;;;;;;;15.80;8.23;;;;;;;;;;5034139;28;20468;-74
2024/03/10 16:06:23;;;;;;;13.10;6.90;;;;;;;;;;5033767;28;20488;-74
2024/03/10 16:08:50;;;;;;;16.93;7.67;;;;;;;;;;5033924;28;20405;-74
2024/03/10 16:11:15;;;;;;;14.00;8.43;;;;;;;;;;5033961;28;20432;-74
2024/03/10 16:14:00;;;;;;;15.03;8.37;;;;;;;;;;5034015;28;20440;-74
2024/03/10 16:16:26;;;;;;;12.63;7.27;;;;;;;;;;5032956;28;20823;-74
2024/03/10 16:18:53;;;;;;;12.63;7.67;;;;;;;;;;5033511;28;20997;-74
2024/03/10 16:21:24;;;;;;;13.93;7.70;;;;;;;;;;5033809;28;20486;-74
2024/03/10 16:23:50;;;;;;;17.83;8.60;;;;;;;;;;5033526;28;20406;-73
2024/03/10 16:26:16;;;;;;;13.77;8.07;;;;;;;;;;5033590;28;20479;-74
2024/03/10 16:28:44;;;;;;;13.77;7.87;;;;;;;;;;5033981;28;20416;-73
2024/03/10 16:31:13;;;;;;;13.77;7.70;;;;;;;;;;5033130;28;20425;-74
2024/03/10 16:33:39;;;;;;;15.73;7.47;;;;;;;;;;5033044;28;20428;-74
2024/03/10 16:36:05;;;;;;;16.80;8.80;;;;;;;;;;5032832;28;20423;-74
2024/03/10 16:38:31;;;;;;;12.43;7.50;;;;;;;;;;5032650;28;20413;-74
2024/03/10 16:40:57;;;;;;;19.53;8.20;;;;;;;;;;5032970;28;20958;-73
2024/03/10 16:43:23;;;;;;;13.83;7.87;;;;;;;;;;5032850;28;20445;-74
2024/03/10 16:45:50;;;;;;;19.20;9.57;;;;;;;;;;5031936;28;20522;-74
2024/03/10 16:48:16;;;;;;;15.10;8.90;;;;;;;;;;5032496;28;20490;-74
2024/03/10 16:50:43;;;;;;;17.60;9.30;;;;;;;;;;5032264;28;21026;-74
2024/03/10 16:53:10;;;;;;;11.10;7.43;;;;;;;;;;5032109;28;20539;-74
2024/03/10 16:55:38;;;;;;;15.80;8.77;;;;;;;;;;5031819;28;20416;-74
2024/03/10 16:58:07;;;;;;;17.83;8.83;;;;;;;;;;5032495;28;20467;-74
2024/03/10 17:00:34;;;;;;;15.60;8.70;;;;;;;;;;5032681;28;20514;-73
2024/03/10 17:03:06;;;;;;;15.60;9.00;;;;;;;;;;5032341;28;20409;-74
2024/03/10 17:05:36;;;;;;;19.03;9.30;;;;;;;;;;5031997;28;20514;-73
2024/03/10 17:08:03;;;;;;;19.27;8.60;;;;;;;;;;5032035;28;20484;-73
2024/03/10 17:10:30;;;;;;;16.93;9.60;;;;;;;;;;5032092;28;20401;-73
2024/03/10 17:12:56;;;;;;;17.60;9.43;;;;;;;;;;5032196;28;20413;-75
2024/03/10 17:15:22;;;;;;;19.53;10.17;;;;;;;;;;5031802;28;20491;-75
2024/03/10 17:17:48;;;;;;;20.50;10.10;;;;;;;;;;5031772;28;20780;-73
2024/03/10 17:20:16;;;;;;;17.23;9.00;;;;;;;;;;5031897;28;20432;-73
2024/03/10 17:22:42;;;;;;;16.60;10.40;;;;;;;;;;5030611;28;20838;-73
2024/03/10 17:25:09;;;;;;;18.80;10.23;;;;;;;;;;5031456;28;20456;-74
2024/03/10 17:27:35;;;;;;;22.00;11.00;;;;;;;;;;5031752;28;20477;-73
2024/03/10 17:30:01;;;;;;;18.80;10.67;;;;;;;;;;5030995;28;20426;-74
2024/03/10 17:32:27;;;;;;;20.60;11.53;;;;;;;;;;5032481;28;20485;-73
2024/03/10 17:34:53;;;;;;;18.67;11.00;;;;;;;;;;5031397;28;20495;-73
2024/03/10 17:37:20;;;;;;;21.10;10.87;;;;;;;;;;5031248;28;20409;-73
2024/03/10 17:39:46;;;;;;;20.83;11.37;;;;;;;;;;5031703;28;20417;-75
2024/03/10 17:42:12;;;;;;;21.47;12.13;;;;;;;;;;5032073;28;20513;-74
2024/03/10 17:44:44;;;;;;;21.47;11.47;;;;;;;;;;5031504;28;20417;-74
2024/03/10 17:47:11;;;;;;;20.70;11.27;;;;;;;;;;5032529;28;20492;-74
2024/03/10 17:49:37;;;;;;;26.17;12.50;;;;;;;;;;5034148;28;20471;-73
2024/03/10 17:52:04;;;;;;;30.23;12.53;;;;;;;;;;5035825;28;20441;-74
2024/03/10 17:54:30;;;;;;;22.37;13.17;;;;;;;;;;5032708;28;20797;-74
2024/03/10 17:56:56;;;;;;;24.00;12.70;;;;;;;;;;5028152;28;20520;-74
2024/03/10 17:59:22;;;;;;;19.17;11.90;;;;;;;;;;5035460;28;20507;-74
2024/03/10 18:01:48;;;;;;;24.33;12.83;;;;;;;;;;5029060;28;21026;-74
2024/03/10 18:04:14;;;;;;;23.20;13.33;;;;;;;;;;5014969;28;20464;-73
2024/03/10 18:06:41;;;;;;;23.67;12.00;;;;;;;;;;5025483;28;20465;-72
2024/03/10 18:09:09;;;;;;;27.63;14.30;;;;;;;;;;5037316;28;20409;-73
2024/03/10 18:11:40;;;;;;;25.30;12.67;;;;;;;;;;5034441;28;20451;-73
2024/03/10 18:14:07;;;;;;;32.30;14.80;;;;;;;;;;5030682;28;20912;-73
2024/03/10 18:16:33;;;;;;;47.47;28.73;;;;;;;;;;5017326;28;20426;-73
2024/03/10 18:18:59;;;;;;;26.67;15.83;;;;;;;;;;5015437;28;20410;-74
2024/03/10 18:21:25;;;;;;;27.67;13.73;;;;;;;;;;5033100;28;20449;-74
2024/03/10 18:23:51;;;;;;;26.80;14.67;;;;;;;;;;5035876;28;20418;-72
2024/03/10 18:26:21;;;;;;;31.20;13.43;;;;;;;;;;5034681;28;20468;-72
2024/03/10 18:28:48;;;;;;;30.30;13.50;;;;;;;;;;5034712;28;20420;-73
2024/03/10 18:31:19;;;;;;;26.10;13.50;;;;;;;;;;5034681;28;20429;-73
2024/03/10 18:33:45;;;;;;;30.43;13.00;;;;;;;;;;5034831;28;20488;-74
2024/03/10 18:36:11;;;;;;;24.73;13.47;;;;;;;;;;5035041;28;20419;-74
2024/03/10 18:38:37;;;;;;;26.97;13.97;;;;;;;;;;5034464;28;20409;-72
2024/03/10 18:41:04;;;;;;;28.90;14.43;;;;;;;;;;5033064;28;20820;-71
2024/03/10 18:43:30;;;;;;;27.33;14.07;;;;;;;;;;5034278;28;20512;-70
2024/03/10 18:46:00;;;;;;;32.30;14.77;;;;;;;;;;5033926;28;20460;-70
2024/03/10 18:48:26;;;;;;;27.17;13.83;;;;;;;;;;5033531;28;20413;-72
2024/03/10 18:50:53;;;;;;;28.57;14.73;;;;;;;;;;5027831;28;20453;-72
2024/03/10 18:53:20;;;;;;;27.43;14.70;;;;;;;;;;5014611;28;20449;-72
2024/03/10 18:55:46;;;;;;;28.00;13.70;;;;;;;;;;5033986;28;20920;-71
2024/03/10 18:58:12;;;;;;;28.43;13.37;;;;;;;;;;5025960;28;20426;-72
2024/03/10 19:00:38;;;;;;;31.87;14.60;;;;;;;;;;5017092;28;20449;-72
2024/03/10 19:03:06;;;;;;;31.63;16.30;;;;;;;;;;5033690;28;20901;-71
2024/03/10 19:05:36;;;;;;;34.70;15.80;;;;;;;;;;5033974;28;20458;-72
2024/03/10 19:08:03;;;;;;;29.33;15.00;;;;;;;;;;5030416;28;20470;-71
2024/03/10 19:10:29;;;;;;;30.20;13.33;;;;;;;;;;5030358;28;20417;-72
2024/03/10 19:12:57;;;;;;;26.07;13.63;;;;;;;;;;5033934;28;20412;-72
2024/03/10 19:15:23;;;;;;;25.13;13.70;;;;;;;;;;5033171;28;20420;-72
2024/03/10 19:17:49;;;;;;;26.33;13.50;;;;;;;;;;5033646;28;20408;-77
2024/03/10 19:20:16;;;;;;;24.67;13.97;;;;;;;;;;5034550;28;20428;-75
2024/03/10 19:22:42;;;;;;;22.93;12.10;;;;;;;;;;5032800;28;20417;-75
2024/03/10 19:25:12;;;;;;;24.33;12.30;;;;;;;;;;5033311;28;20456;-74
2024/03/10 19:27:38;;;;;;;22.80;11.80;;;;;;;;;;5033481;28;20452;-74
2024/03/10 19:30:05;;;;;;;27.37;13.17;;;;;;;;;;5033355;28;20409;-75
2024/03/10 19:32:31;;;;;;;23.50;12.40;;;;;;;;;;5032072;28;20448;-74
2024/03/10 19:34:57;;;;;;;27.17;13.50;;;;;;;;;;5033056;28;20420;-74
2024/03/10 19:37:23;;;;;;;22.60;12.57;;;;;;;;;;5033062;28;20421;-76
2024/03/10 19:39:49;;;;;;;25.47;12.87;;;;;;;;;;5032249;28;20417;-76
2024/03/10 19:42:15;;;;;;;26.60;12.50;;;;;;;;;;5030157;28;20434;-74
2024/03/10 19:44:45;;;;;;;23.87;12.67;;;;;;;;;;5014254;28;20529;-73
2024/03/10 19:47:12;;;;;;;22.20;11.30;;;;;;;;;;5032723;28;20448;-73
2024/03/10 19:49:39;;;;;;;18.47;9.87;;;;;;;;;;5033920;28;20428;-73
2024/03/10 19:52:06;;;;;;;20.67;10.07;;;;;;;;;;5033693;28;20457;-74
2024/03/10 19:54:32;;;;;;;18.70;9.47;;;;;;;;;;5017626;28;20418;-73
2024/03/10 19:56:58;;;;;;;16.27;8.97;;;;;;;;;;5014935;28;20417;-74
2024/03/10 19:59:24;;;;;;;13.17;7.93;;;;;;;;;;5037853;28;20495;-73
2024/03/10 20:01:50;;;;;;;20.00;8.70;;;;;;;;;;5033674;28;20510;-75
2024/03/10 20:04:16;;;;;;;16.80;7.90;;;;;;;;;;5031144;28;20421;-72
2024/03/10 20:06:43;;;;;;;10.90;6.30;;;;;;;;;;5031945;28;20556;-72
2024/03/10 20:09:09;;;;;;;13.43;6.63;;;;;;;;;;5032904;28;20425;-73
2024/03/10 20:11:37;;;;;;;10.70;5.60;;;;;;;;;;5031423;28;20790;-72
2024/03/10 20:14:04;;;;;;;13.47;5.80;;;;;;;;;;5019586;28;20480;-71
2024/03/10 20:16:30;;;;;;;8.63;5.17;;;;;;;;;;5017465;28;20413;-71
2024/03/10 20:18:56;;;;;;;12.07;6.47;;;;;;;;;;5032606;28;20439;-72
2024/03/10 20:21:23;;;;;;;13.80;5.90;;;;;;;;;;5032457;28;20433;-72
2024/03/10 20:23:49;;;;;;;11.03;6.40;;;;;;;;;;5032361;28;20798;-71
2024/03/10 20:26:16;;;;;;;9.50;5.37;;;;;;;;;;5032307;28;20457;-71
2024/03/10 20:28:43;;;;;;;9.77;5.40;;;;;;;;;;5032734;28;20413;-72
2024/03/10 20:31:09;;;;;;;10.53;4.80;;;;;;;;;;5022308;28;20965;-71
2024/03/10 20:33:37;;;;;;;6.60;4.23;;;;;;;;;;5012824;28;20890;-71
2024/03/10 20:36:03;;;;;;;10.00;4.50;;;;;;;;;;5014552;28;20446;-72
2024/03/10 20:38:29;;;;;;;7.00;4.30;;;;;;;;;;5023589;28;20784;-73
2024/03/10 20:40:56;;;;;;;8.43;4.47;;;;;;;;;;5029231;28;20519;-72